createdAt,value
2022-08-17T00:00:35.006Z,98727.16
2022-08-17T00:03:26.354Z,98728.13
2022-08-17T00:06:07.001Z,98720.56
2022-08-17T00:08:44.487Z,98733.22
2022-08-17T00:11:34.529Z,98719.75
2022-08-17T00:14:14.059Z,98718.75
2022-08-17T00:16:56.982Z,98709.16
2022-08-17T00:19:26.225Z,98713.59
2022-08-17T00:22:32.713Z,98719.38
2022-08-17T00:24:45.259Z,98714.88
2022-08-17T00:27:12.295Z,98717.72
2022-08-17T00:29:39.323Z,98719.16
2022-08-17T00:33:15.124Z,98724.41
2022-08-17T00:34:54.087Z,98719.63
2022-08-17T00:37:21.550Z,98727.91
2022-08-17T00:39:48.623Z,98722.56
2022-08-17T00:42:21.250Z,98731.34
2022-08-17T00:44:48.868Z,98736.59
2022-08-17T00:47:15.903Z,98736.44
2022-08-17T00:49:43.078Z,98726.16
2022-08-17T00:52:19.182Z,98730.31
2022-08-17T00:54:52.201Z,98727.09
2022-08-17T00:57:29.105Z,98726.13
2022-08-17T01:00:21.291Z,98730.28
2022-08-17T01:02:49.234Z,98734.41
2022-08-17T01:05:25.886Z,98740.75
2022-08-17T01:07:55.161Z,98741.41
2022-08-17T01:10:58.444Z,98738.81
2022-08-17T01:13:25.455Z,98733.97
2022-08-17T01:16:07.901Z,98734.59
2022-08-17T01:18:36.014Z,98733.59
2022-08-17T01:21:20.226Z,98739.97
2022-08-17T01:23:47.922Z,98731.94
2022-08-17T01:26:16.186Z,98738.28
2022-08-17T01:28:54.242Z,98740.50
2022-08-17T01:31:28.561Z,98739.19
2022-08-17T01:33:59.860Z,98741.75
2022-08-17T01:36:29.253Z,98749.41
2022-08-17T01:38:56.742Z,98740.72
2022-08-17T01:41:24.791Z,98742.91
2022-08-17T01:44:03.457Z,98741.94
2022-08-17T01:46:36.150Z,98742.25
2022-08-17T01:49:09.198Z,98743.16
2022-08-17T01:51:37.301Z,98737.53
2022-08-17T01:54:11.542Z,98745.47
2022-08-17T01:56:43.741Z,98739.56
2022-08-17T01:59:18.467Z,98742.09
2022-08-17T02:01:47.717Z,98746.22
2022-08-17T02:04:16.144Z,98744.91
2022-08-17T02:06:52.461Z,98751.75
2022-08-17T02:09:23.971Z,98758.88
2022-08-17T02:11:58.934Z,98756.28
2022-08-17T02:14:26.906Z,98753.06
2022-08-17T02:16:54.661Z,98753.66
2022-08-17T02:19:22.406Z,98744.53
2022-08-17T02:21:52.530Z,98746.25
2022-08-17T02:24:59.635Z,98748.44
2022-08-17T02:27:16.600Z,98743.66
2022-08-17T02:29:44.078Z,98756.69
2022-08-17T02:32:27.458Z,98757.31
2022-08-17T02:35:00.574Z,98761.72
2022-08-17T02:37:29.759Z,98760.72
2022-08-17T02:39:58.702Z,98759.09
2022-08-17T02:42:38.506Z,98765.94
2022-08-17T02:45:15.695Z,98760.31
2022-08-17T02:47:44.189Z,98757.69
2022-08-17T02:50:15.187Z,98764.50
2022-08-17T02:52:48.821Z,98764.00
2022-08-17T02:55:33.919Z,98762.19
2022-08-17T02:58:01.855Z,98755.47
2022-08-17T03:00:37.134Z,98762.28
2022-08-17T03:03:06.045Z,98761.25
2022-08-17T03:05:36.339Z,98759.66
2022-08-17T03:08:05.631Z,98754.84
2022-08-17T03:10:33.965Z,98759.75
2022-08-17T03:13:01.561Z,98767.91
2022-08-17T03:15:33.477Z,98769.31
2022-08-17T03:18:02.518Z,98774.50
2022-08-17T03:20:33.550Z,98775.09
2022-08-17T03:23:02.814Z,98781.13
2022-08-17T03:25:39.070Z,98780.63
2022-08-17T03:28:07.374Z,98773.09
2022-08-17T03:30:36.059Z,98772.06
2022-08-17T03:33:07.383Z,98778.88
2022-08-17T03:35:37.583Z,98780.25
2022-08-17T03:38:05.210Z,98782.47
2022-08-17T03:40:34.626Z,98786.31
2022-08-17T03:43:23.034Z,98779.84
2022-08-17T03:46:10.972Z,98789.38
2022-08-17T03:49:13.529Z,98782.63
2022-08-17T03:51:59.164Z,98787.88
2022-08-17T03:54:44.821Z,98785.44
2022-08-17T03:57:12.899Z,98794.69
2022-08-17T03:59:40.881Z,98798.47
2022-08-17T04:02:15.968Z,98806.09
2022-08-17T04:04:43.290Z,98805.28
2022-08-17T04:07:10.571Z,98802.88
2022-08-17T04:09:38.040Z,98800.19
2022-08-17T04:12:05.912Z,98806.69
2022-08-17T04:14:51.494Z,98802.88
2022-08-17T04:17:24.932Z,98812.63
2022-08-17T04:19:53.396Z,98813.16
2022-08-17T04:22:30.042Z,98818.56
2022-08-17T04:24:59.138Z,98816.38
2022-08-17T04:27:26.118Z,98825.81
2022-08-17T04:29:55.602Z,98813.56
2022-08-17T04:32:58.399Z,98818.09
2022-08-17T04:35:11.658Z,98819.41
2022-08-17T04:37:39.014Z,98813.41
2022-08-17T04:40:27.175Z,98814.44
2022-08-17T04:43:04.782Z,98822.47
2022-08-17T04:45:32.616Z,98814.25
2022-08-17T04:48:00.981Z,98818.47
2022-08-17T04:50:28.817Z,98818.94
2022-08-17T04:52:56.914Z,98821.56
2022-08-17T04:55:24.370Z,98825.78
2022-08-17T04:57:51.379Z,98817.53
2022-08-17T05:00:18.730Z,98823.38
2022-08-17T05:02:50.054Z,98822.22
2022-08-17T05:05:28.242Z,98828.25
2022-08-17T05:07:58.622Z,98828.88
2022-08-17T05:10:31.706Z,98823.75
2022-08-17T05:13:15.899Z,98827.28
2022-08-17T05:15:47.647Z,98825.66
2022-08-17T05:18:16.547Z,98814.78
2022-08-17T05:20:44.452Z,98827.88
2022-08-17T05:23:16.663Z,98831.69
2022-08-17T05:25:47.927Z,98830.03
2022-08-17T05:28:20.844Z,98834.44
2022-08-17T05:30:51.945Z,98832.78
2022-08-17T05:33:30.111Z,98831.41
2022-08-17T05:35:59.494Z,98837.31
2022-08-17T05:38:29.543Z,98826.91
2022-08-17T05:41:00.279Z,98834.34
2022-08-17T05:43:32.567Z,98837.16
2022-08-17T05:46:26.414Z,98840.13
2022-08-17T05:48:59.187Z,98842.16
2022-08-17T05:52:00.133Z,98844.13
2022-08-17T05:55:17.489Z,98840.97
2022-08-17T05:58:09.894Z,98840.81
2022-08-17T06:00:47.908Z,98843.75
2022-08-17T06:03:34.249Z,98848.72
2022-08-17T06:06:41.471Z,98842.28
2022-08-17T06:09:37.086Z,98847.31
2022-08-17T06:12:39.911Z,98835.44
2022-08-17T06:15:31.551Z,98844.44
2022-08-17T06:18:07.827Z,98842.19
2022-08-17T06:20:58.401Z,98837.53
2022-08-17T06:23:40.734Z,98836.72
2022-08-17T06:26:22.054Z,98836.25
2022-08-17T06:29:02.814Z,98845.38
2022-08-17T06:31:36.876Z,98844.44
2022-08-17T06:34:10.513Z,98837.66
2022-08-17T06:37:09.170Z,98834.44
2022-08-17T06:40:11.035Z,98831.25
2022-08-17T06:43:06.430Z,98832.19
2022-08-17T06:46:01.811Z,98825.44
2022-08-17T06:49:07.736Z,98835.84
2022-08-17T06:52:08.223Z,98834.34
2022-08-17T06:55:18.161Z,98837.00
2022-08-17T06:57:53.501Z,98831.53
2022-08-17T07:00:28.324Z,98831.97
2022-08-17T07:03:26.341Z,98835.66
2022-08-17T07:06:00.861Z,98833.84
2022-08-17T07:08:54.923Z,98836.13
2022-08-17T07:11:53.315Z,98834.16
2022-08-17T07:14:40.965Z,98832.03
2022-08-17T07:17:13.988Z,98832.75
2022-08-17T07:19:45.443Z,98829.38
2022-08-17T07:23:00.201Z,98837.75
2022-08-17T07:25:30.405Z,98838.69
2022-08-17T07:28:05.302Z,98825.81
2022-08-17T07:30:49.193Z,98833.50
2022-08-17T07:33:23.762Z,98829.16
2022-08-17T07:35:52.114Z,98831.69
2022-08-17T07:38:25.370Z,98826.09
2022-08-17T07:41:03.483Z,98827.97
2022-08-17T07:43:39.999Z,98821.31
2022-08-17T07:46:52.381Z,98809.94
2022-08-17T07:49:46.373Z,98815.81
2022-08-17T07:52:47.945Z,98817.41
2022-08-17T07:55:34.885Z,98823.72
2022-08-17T07:58:03.664Z,98823.72
2022-08-17T08:00:33.522Z,98813.03
2022-08-17T08:03:28.635Z,98819.22
2022-08-17T08:06:01.362Z,98814.09
2022-08-17T08:08:43.686Z,98821.31
2022-08-17T08:11:29.628Z,98818.97
2022-08-17T08:14:22.647Z,98815.63
2022-08-17T08:17:07.065Z,98817.69
2022-08-17T08:19:37.158Z,98817.75
2022-08-17T08:22:11.099Z,98817.94
2022-08-17T08:25:00.111Z,98808.53
2022-08-17T08:27:50.154Z,98807.38
2022-08-17T08:30:21.921Z,98805.78
2022-08-17T08:32:57.606Z,98805.50
2022-08-17T08:35:54.008Z,98810.91
2022-08-17T08:38:50.836Z,98816.41
2022-08-17T08:42:13.016Z,98814.25
2022-08-17T08:45:00.616Z,98820.31
2022-08-17T08:48:02.392Z,98804.13
2022-08-17T08:51:00.932Z,98802.72
2022-08-17T08:54:05.908Z,98800.25
2022-08-17T09:00:07.250Z,98788.72
2022-08-17T09:02:58.569Z,98793.84
2022-08-17T09:05:42.777Z,98789.34
2022-08-17T09:08:28.214Z,98787.91
2022-08-17T09:11:31.088Z,98790.56
2022-08-17T09:14:26.761Z,98788.50
2022-08-17T09:17:12.738Z,98788.94
2022-08-17T09:20:01.308Z,98789.94
2022-08-17T09:22:38.556Z,98786.13
2022-08-17T09:25:23.268Z,98775.59
2022-08-17T09:28:13.300Z,98784.38
2022-08-17T09:30:52.581Z,98782.88
2022-08-17T09:33:29.014Z,98781.69
2022-08-17T09:36:07.275Z,98780.56
2022-08-17T09:39:10.138Z,98778.97
2022-08-17T09:41:51.728Z,98780.53
2022-08-17T09:44:37.846Z,98779.72
2022-08-17T09:47:24.809Z,98788.00
2022-08-17T09:50:04.774Z,98779.59
2022-08-17T09:52:32.579Z,98781.41
2022-08-17T09:55:01.855Z,98775.06
2022-08-17T09:58:09.950Z,98780.53
2022-08-17T10:00:57.811Z,98775.31
2022-08-17T10:03:51.603Z,98771.69
2022-08-17T10:06:24.763Z,98771.94
2022-08-17T10:09:02.161Z,98759.19
2022-08-17T10:11:57.688Z,98760.59
2022-08-17T10:15:07.752Z,98765.75
2022-08-17T10:18:14.738Z,98767.41
2022-08-17T10:21:24.725Z,98754.00
2022-08-17T10:25:21.578Z,98765.16
2022-08-17T10:27:54.323Z,98756.72
2022-08-17T10:30:26.718Z,98760.63
2022-08-17T10:33:13.636Z,98775.47
2022-08-17T10:36:06.397Z,98766.09
2022-08-17T10:38:49.737Z,98764.69
2022-08-17T10:41:38.220Z,98762.44
2022-08-17T10:44:40.698Z,98764.03
2022-08-17T10:47:16.254Z,98760.38
2022-08-17T10:49:56.034Z,98764.75
2022-08-17T10:52:25.168Z,98761.59
2022-08-17T10:54:54.896Z,98760.72
2022-08-17T10:57:37.326Z,98751.16
2022-08-17T11:00:27.820Z,98749.50
2022-08-17T11:02:57.825Z,98744.50
2022-08-17T11:05:44.619Z,98746.00
2022-08-17T11:08:57.036Z,98730.84
2022-08-17T11:11:50.925Z,98733.13
2022-08-17T11:15:01.737Z,98729.44
2022-08-17T11:17:49.594Z,98739.16
2022-08-17T11:21:12.182Z,98733.50
2022-08-17T11:24:24.101Z,98730.00
2022-08-17T11:27:28.660Z,98727.78
2022-08-17T11:30:03.891Z,98732.06
2022-08-17T11:32:53.024Z,98728.28
2022-08-17T11:35:22.163Z,98734.78
2022-08-17T11:38:34.676Z,98732.66
2022-08-17T11:41:36.175Z,98732.44
2022-08-17T11:44:28.259Z,98738.97
2022-08-17T11:47:56.984Z,98728.63
2022-08-17T11:51:35.035Z,98733.47
2022-08-17T11:54:33.308Z,98722.88
2022-08-17T11:57:27.677Z,98730.09
2022-08-17T12:00:11.414Z,98717.97
2022-08-17T12:02:48.513Z,98724.16
2022-08-17T12:05:25.223Z,98720.41
2022-08-17T12:08:04.617Z,98707.09
2022-08-17T12:10:36.654Z,98709.97
2022-08-17T12:13:14.487Z,98712.00
2022-08-17T12:15:49.687Z,98708.72
2022-08-17T12:18:33.603Z,98716.19
2022-08-17T12:21:48.639Z,98709.72
2022-08-17T12:25:04.775Z,98716.56
2022-08-17T12:28:04.211Z,98721.72
2022-08-17T12:30:31.865Z,98722.38
2022-08-17T12:32:59.782Z,98712.53
2022-08-17T12:35:38.945Z,98720.34
2022-08-17T12:38:26.888Z,98729.66
2022-08-17T12:40:58.494Z,98725.00
2022-08-17T12:43:32.835Z,98713.97
2022-08-17T12:46:13.236Z,98725.16
2022-08-17T12:48:59.688Z,98725.66
2022-08-17T12:51:34.227Z,98726.13
2022-08-17T12:54:02.422Z,98719.03
2022-08-17T12:56:29.888Z,98718.19
2022-08-17T12:58:57.787Z,98724.84
2022-08-17T13:01:26.468Z,98722.13
2022-08-17T13:03:59.577Z,98717.72
2022-08-17T13:06:34.799Z,98712.72
2022-08-17T13:09:18.341Z,98716.16
2022-08-17T13:11:56.664Z,98705.59
2022-08-17T13:14:23.790Z,98711.34
2022-08-17T13:17:07.150Z,98714.13
2022-08-17T13:19:50.077Z,98718.59
2022-08-17T13:22:23.116Z,98709.97
2022-08-17T13:25:00.771Z,98719.56
2022-08-17T13:27:32.442Z,98710.88
2022-08-17T13:30:11.738Z,98712.97
2022-08-17T13:32:48.159Z,98707.84
2022-08-17T13:35:45.902Z,98710.25
2022-08-17T13:38:51.084Z,98710.81
2022-08-17T13:41:38.922Z,98711.44
2022-08-17T13:44:33.713Z,98704.59
2022-08-17T13:47:03.006Z,98706.59
2022-08-17T13:49:41.574Z,98702.19
2022-08-17T13:52:41.270Z,98705.72
2022-08-17T13:55:22.876Z,98707.31
2022-08-17T13:58:06.536Z,98708.81
2022-08-17T14:00:36.839Z,98715.81
2022-08-17T14:03:05.628Z,98711.69
2022-08-17T14:05:33.868Z,98706.72
2022-08-17T14:08:06.944Z,98713.78
2022-08-17T14:10:36.307Z,98707.31
2022-08-17T14:13:04.400Z,98706.25
2022-08-17T14:15:54.662Z,98704.94
2022-08-17T14:18:35.480Z,98705.88
2022-08-17T14:21:09.400Z,98704.09
2022-08-17T14:23:37.823Z,98703.00
2022-08-17T14:26:05.532Z,98709.84
2022-08-17T14:28:33.256Z,98704.72
2022-08-17T14:31:03.791Z,98701.56
2022-08-17T14:33:30.896Z,98699.25
2022-08-17T14:35:58.661Z,98701.06
2022-08-17T14:38:25.735Z,98694.28
2022-08-17T14:40:52.989Z,98693.19
2022-08-17T14:43:20.970Z,98703.41
2022-08-17T14:45:47.969Z,98707.66
2022-08-17T14:48:15.846Z,98718.97
2022-08-17T14:50:44.195Z,98709.66
2022-08-17T14:53:16.061Z,98713.16
2022-08-17T14:55:47.350Z,98715.72
2022-08-17T14:58:15.816Z,98713.59
2022-08-17T15:00:43.607Z,98714.59
2022-08-17T15:03:11.938Z,98713.63
2022-08-17T15:05:40.318Z,98712.13
2022-08-17T15:08:07.848Z,98701.91
2022-08-17T15:10:36.502Z,98701.56
2022-08-17T15:13:04.100Z,98696.13
2022-08-17T15:15:31.264Z,98692.25
2022-08-17T15:17:59.825Z,98706.66
2022-08-17T15:20:30.148Z,98708.31
2022-08-17T15:22:59.030Z,98720.31
2022-08-17T15:25:30.290Z,98713.59
2022-08-17T15:27:58.285Z,98706.91
2022-08-17T15:30:26.553Z,98714.03
2022-08-17T15:32:56.582Z,98706.88
2022-08-17T15:35:29.745Z,98700.84
2022-08-17T15:38:06.127Z,98707.59
2022-08-17T15:40:44.333Z,98698.81
2022-08-17T15:43:17.574Z,98707.59
2022-08-17T15:45:52.910Z,98702.03
2022-08-17T15:48:43.002Z,98703.56
2022-08-17T15:51:17.811Z,98706.41
2022-08-17T15:53:49.550Z,98703.19
2022-08-17T15:56:17.194Z,98705.59
2022-08-17T15:58:46.795Z,98703.63
2022-08-17T16:01:42.243Z,98703.78
2022-08-17T16:04:26.820Z,98702.66
2022-08-17T16:06:54.958Z,98707.84
2022-08-17T16:09:22.054Z,98702.28
2022-08-17T16:11:53.741Z,98714.19
2022-08-17T16:14:24.271Z,98709.03
2022-08-17T16:16:51.715Z,98712.63
2022-08-17T16:19:18.702Z,98708.66
2022-08-17T16:21:45.926Z,98709.13
2022-08-17T16:24:13.691Z,98708.72
2022-08-17T16:26:42.578Z,98704.78
2022-08-17T16:29:10.745Z,98711.94
2022-08-17T16:31:38.481Z,98704.81
2022-08-17T16:34:17.767Z,98712.88
2022-08-17T16:36:55.333Z,98714.50
2022-08-17T16:39:29.142Z,98731.66
2022-08-17T16:41:57.608Z,98742.84
2022-08-17T16:44:28.886Z,98748.09
2022-08-17T16:46:57.434Z,98743.25
2022-08-17T16:49:35.509Z,98749.28
2022-08-17T16:52:10.715Z,98758.91
2022-08-17T16:54:43.649Z,98761.78
2022-08-17T16:57:13.423Z,98762.47
2022-08-17T16:59:44.887Z,98754.97
2022-08-17T17:02:23.505Z,98755.97
2022-08-17T17:05:17.666Z,98764.69
2022-08-17T17:08:03.768Z,98763.19
2022-08-17T17:11:25.026Z,98777.09
2022-08-17T17:14:02.122Z,98775.19
2022-08-17T17:16:35.352Z,98783.13
2022-08-17T17:19:34.946Z,98776.97
2022-08-17T17:22:30.119Z,98784.16
2022-08-17T17:25:16.034Z,98787.28
2022-08-17T17:28:07.240Z,98792.22
2022-08-17T17:30:57.658Z,98792.34
2022-08-17T17:33:42.449Z,98795.84
2022-08-17T17:36:43.201Z,98805.53
2022-08-17T17:39:19.015Z,98807.91
2022-08-17T17:41:58.251Z,98804.25
2022-08-17T17:44:34.331Z,98812.75
2022-08-17T17:47:04.791Z,98826.16
2022-08-17T17:49:46.452Z,98822.63
2022-08-17T17:52:53.546Z,98824.97
2022-08-17T17:55:37.899Z,98833.56
2022-08-17T17:58:49.386Z,98827.19
2022-08-17T18:02:02.156Z,98842.81
2022-08-17T18:04:47.547Z,98846.66
2022-08-17T18:07:39.277Z,98843.41
2022-08-17T18:10:31.613Z,98841.75
2022-08-17T18:13:26.604Z,98854.28
2022-08-17T18:15:56.528Z,98853.75
2022-08-17T18:18:37.780Z,98846.47
2022-08-17T18:21:18.950Z,98849.94
2022-08-17T18:23:57.600Z,98845.09
2022-08-17T18:26:42.018Z,98842.56
2022-08-17T18:29:30.079Z,98847.91
2022-08-17T18:32:33.571Z,98844.59
2022-08-17T18:35:08.768Z,98847.59
2022-08-17T18:37:42.814Z,98840.75
2022-08-17T18:40:19.631Z,98845.34
2022-08-17T18:43:43.775Z,98847.97
2022-08-17T18:46:35.279Z,98851.75
2022-08-17T18:49:32.566Z,98852.31
2022-08-17T18:52:33.483Z,98854.50
2022-08-17T18:55:17.462Z,98858.28
2022-08-17T18:58:10.249Z,98865.22
2022-08-17T19:00:41.583Z,98864.19
2022-08-17T19:03:18.368Z,98863.22
2022-08-17T19:06:17.254Z,98864.25
2022-08-17T19:08:45.242Z,98883.00
2022-08-17T19:11:39.327Z,98883.97
2022-08-17T19:14:17.240Z,98874.41
2022-08-17T19:16:53.445Z,98874.22
2022-08-17T19:19:58.116Z,98877.53
2022-08-17T19:22:49.686Z,98868.31
2022-08-17T19:25:30.682Z,98870.41
2022-08-17T19:28:04.190Z,98867.16
2022-08-17T19:30:55.978Z,98870.88
2022-08-17T19:33:23.991Z,98880.09
2022-08-17T19:36:28.611Z,98877.53
2022-08-17T19:39:37.743Z,98885.91
2022-08-17T19:42:29.722Z,98886.53
2022-08-17T19:45:27.776Z,98884.84
2022-08-17T19:48:41.749Z,98889.25
2022-08-17T19:51:35.540Z,98888.16
2022-08-17T19:54:39.965Z,98891.88
2022-08-17T19:57:25.747Z,98897.16
2022-08-17T20:00:05.775Z,98892.13
2022-08-17T20:02:53.501Z,98884.94
2022-08-17T20:05:40.650Z,98886.25
2022-08-17T20:08:33.880Z,98887.63
2022-08-17T20:11:41.567Z,98883.41
2022-08-17T20:14:17.502Z,98887.88
2022-08-17T20:16:44.971Z,98894.78
2022-08-17T20:19:39.927Z,98908.75
2022-08-17T20:22:20.456Z,98909.97
2022-08-17T20:25:07.036Z,98916.03
2022-08-17T20:27:51.468Z,98909.50
2022-08-17T20:30:41.640Z,98910.91
2022-08-17T20:33:36.334Z,98909.06
2022-08-17T20:36:20.112Z,98909.66
2022-08-17T20:38:54.415Z,98910.19
2022-08-17T20:41:30.697Z,98906.91
2022-08-17T20:43:58.630Z,98902.78
2022-08-17T20:46:37.606Z,98893.19
2022-08-17T20:49:39.949Z,98892.56
2022-08-17T20:52:15.527Z,98894.72
2022-08-17T20:54:57.326Z,98895.75
2022-08-17T20:57:33.429Z,98904.06
2022-08-17T21:00:19.232Z,98912.50
2022-08-17T21:02:50.903Z,98912.69
2022-08-17T21:05:53.861Z,98901.03
2022-08-17T21:08:45.283Z,98904.00
2022-08-17T21:12:03.067Z,98901.00
2022-08-17T21:14:54.163Z,98908.97
2022-08-17T21:17:42.781Z,98907.53
2022-08-17T21:20:59.749Z,98915.16
2022-08-17T21:24:07.450Z,98911.38
2022-08-17T21:26:57.431Z,98919.78
2022-08-17T21:29:31.211Z,98921.09
2022-08-17T21:32:03.010Z,98917.00
2022-08-17T21:34:38.249Z,98916.03
2022-08-17T21:37:21.769Z,98917.38
2022-08-17T21:40:19.743Z,98918.69
2022-08-17T21:42:58.032Z,98917.78
2022-08-17T21:45:35.532Z,98913.63
2022-08-17T21:48:21.295Z,98905.59
2022-08-17T21:51:10.899Z,98895.03
2022-08-17T21:53:48.945Z,98900.22
2022-08-17T21:56:30.356Z,98907.03
2022-08-17T21:59:24.341Z,98902.06
2022-08-17T22:02:07.337Z,98908.03
2022-08-17T22:04:41.510Z,98905.50
2022-08-17T22:07:13.866Z,98904.56
2022-08-17T22:09:48.715Z,98904.28
2022-08-17T22:12:24.163Z,98907.19
2022-08-17T22:15:04.253Z,98899.97
2022-08-17T22:17:40.281Z,98890.34
2022-08-17T22:20:19.802Z,98891.63
2022-08-17T22:23:08.769Z,98891.47
2022-08-17T22:25:56.309Z,98892.78
2022-08-17T22:28:52.856Z,98897.94
2022-08-17T22:31:32.854Z,98897.00
2022-08-17T22:34:00.227Z,98902.31
2022-08-17T22:36:41.787Z,98902.16
2022-08-17T22:39:09.178Z,98903.94
2022-08-17T22:41:50.854Z,98900.25
2022-08-17T22:44:27.202Z,98895.44
2022-08-17T22:46:58.930Z,98894.50
2022-08-17T22:49:54.027Z,98886.00
2022-08-17T22:53:03.262Z,98880.53
2022-08-17T22:55:52.484Z,98880.41
2022-08-17T22:58:42.702Z,98878.44
2022-08-17T23:01:32.573Z,98882.94
2022-08-17T23:04:13.710Z,98889.69
2022-08-17T23:06:44.548Z,98892.56
2022-08-17T23:09:11.687Z,98887.75
2022-08-17T23:11:53.333Z,98900.13
2022-08-17T23:14:20.870Z,98899.97
2022-08-17T23:16:50.275Z,98906.06
2022-08-17T23:19:21.246Z,98906.69
2022-08-17T23:21:50.964Z,98901.09
2022-08-17T23:24:24.879Z,98909.91
2022-08-17T23:26:52.612Z,98905.41
2022-08-17T23:29:21.286Z,98908.31
2022-08-17T23:31:50.587Z,98910.06
2022-08-17T23:34:18.944Z,98906.34
2022-08-17T23:36:50.603Z,98908.13
2022-08-17T23:39:24.552Z,98900.91
2022-08-17T23:41:57.734Z,98899.63
2022-08-17T23:44:26.600Z,98910.31
2022-08-17T23:46:55.005Z,98917.19
2022-08-17T23:49:24.388Z,98920.06
2022-08-17T23:51:54.584Z,98926.16
2022-08-17T23:54:41.504Z,98923.59
2022-08-17T23:57:20.878Z,98923.22
